Huvudsida
METAR-TAF:

METAR-TAF

Flygplatser :

Al Bahah, Saudiarabien

latitud: 20-18N, longitud: 041-38E, höjd: 1652 m

Aktuellt väderrapport

Denna rapport gjordes för 16 minuter sedan, klockan 20:00 UTC
Vind 2 kt från sydost
Temperatur 19°C
Fuktighet 49%
Tryck 1019 hPa
Sikt 10 km eller mer
Få moln på en höjd av 3000 ft

METAR: OEBA 112000Z 13002KT 9999 FEW030 19/08 Q1019 NOSIG

Tid: 23:16 (20:16 UTC)

Väderprognos

Denna rapport gjordes för 9 timmar och 16 minuter sedan, klockan 11:00 UTC
Prognos gäller från 11 kl. 12 UTC till 12 kl. 18 UTC
Vind 15 kt från syd/sydost
Sikt 10 km eller mer
Få moln på en höjd av 3000 ft
Temporärt
från 11 kl. 12 UTC till 11 kl. 18 UTC
Sikt: 6000 m
Få moln på en höjd av 2500 ft, Cumulonimbus.
Spridda moln på en höjd av 3000 ft
åska, regn

TAF: OEBA 111100Z 1112/1218 16015KT 9999 FEW030 TEMPO 1112/1118 6000 TSRA FEW025CB SCT030

Aktuella väderrapporter och prognoser från 4000 flygplatser (METAR- och TAF-rapporter).

De tillgängliga stationerna syns som gula och röda prickar på kartan.

För musen över prickarna för att se namnen på stationerna.

Klicka sedan för att få väderrapporter och prognoser.

För att ändra kartan: Klicka på de gröna knapparna med ett svart kors på för att zooma in; den gröna knappen med ett streck på för att zooma ut; eller på de gröna pilarna för angränsande kartor.


METAR-TAF: